Time,TemperatureF,DewpointF,PressureIn,WindDirection,WindDirectionDegrees,WindSpeedMPH,WindSpeedGustMPH,Humidity,HourlyPrecipIn,Conditions,Clouds,dailyrainin,SoftwareType,DateUTC
2013-10-08 00:11:00,56.0,16.0,-100.00,South,186,5.0,14.0,20,0.00,,,0.00,,2013-10-08 07:11:00,
2013-10-08 00:42:00,56.0,14.0,-100.00,South,173,5.0,11.0,19,0.00,,,0.00,,2013-10-08 07:42:00,
2013-10-08 00:52:00,56.0,14.0,-100.00,South,173,5.0,11.0,19,0.00,,,0.00,,2013-10-08 07:52:00,
2013-10-08 01:02:00,56.0,14.0,-100.00,South,173,5.0,11.0,19,0.00,,,0.00,,2013-10-08 08:02:00,
2013-10-08 01:12:00,56.0,14.0,-100.00,South,173,5.0,11.0,19,0.00,,,0.00,,2013-10-08 08:12:00,
2013-10-08 01:42:00,55.0,16.0,-100.00,SSE,168,5.0,11.0,21,0.00,,,0.00,,2013-10-08 08:42:00,
2013-10-08 01:52:00,55.0,16.0,-100.00,SSE,168,5.0,11.0,21,0.00,,,0.00,,2013-10-08 08:52:00,
2013-10-08 02:02:00,55.0,16.0,-100.00,SSE,168,5.0,11.0,21,0.00,,,0.00,,2013-10-08 09:02:00,
2013-10-08 02:43:00,55.0,15.0,-100.00,South,189,5.0,14.0,20,-99.99,,,0.00,,2013-10-08 09:43:00,
2013-10-08 02:53:00,55.0,15.0,-100.00,South,189,5.0,14.0,20,-99.99,,,0.00,,2013-10-08 09:53:00,
2013-10-08 03:03:00,55.0,15.0,-100.00,South,189,5.0,14.0,20,-99.99,,,0.00,,2013-10-08 10:03:00,
2013-10-08 03:12:00,55.0,15.0,-100.00,South,189,5.0,14.0,20,-99.99,,,0.00,,2013-10-08 10:12:00,
2013-10-08 03:42:00,55.0,17.0,-100.00,South,170,6.0,17.0,22,0.00,,,0.00,,2013-10-08 10:42:00,
2013-10-08 03:53:00,55.0,17.0,-100.00,South,170,6.0,17.0,22,0.00,,,0.00,,2013-10-08 10:53:00,
2013-10-08 04:02:00,55.0,17.0,-100.00,South,170,6.0,17.0,22,0.00,,,0.00,,2013-10-08 11:02:00,
2013-10-08 04:12:00,55.0,17.0,-100.00,South,170,6.0,17.0,22,0.00,,,0.00,,2013-10-08 11:12:00,
2013-10-08 04:42:00,55.0,19.0,-100.00,SSE,162,7.0,18.0,24,0.00,,,0.00,,2013-10-08 11:42:00,
2013-10-08 04:52:00,55.0,19.0,-100.00,SSE,162,7.0,18.0,24,0.00,,,0.00,,2013-10-08 11:52:00,
2013-10-08 05:02:00,55.0,19.0,-100.00,SSE,162,7.0,18.0,24,0.00,,,0.00,,2013-10-08 12:02:00,
2013-10-08 05:12:00,55.0,19.0,-100.00,SSE,162,7.0,18.0,24,0.00,,,0.00,,2013-10-08 12:12:00,
2013-10-08 05:42:00,54.0,20.0,-100.00,South,178,6.0,14.0,26,0.00,,,0.00,,2013-10-08 12:42:00,
2013-10-08 05:52:00,54.0,20.0,-100.00,South,178,6.0,14.0,26,0.00,,,0.00,,2013-10-08 12:52:00,
2013-10-08 06:01:00,54.0,20.0,-100.00,South,178,6.0,14.0,26,0.00,,,0.00,,2013-10-08 13:01:00,
2013-10-08 06:11:00,54.0,20.0,-100.00,South,178,6.0,14.0,26,0.00,,,0.00,,2013-10-08 13:11:00,
2013-10-08 06:42:00,54.0,22.0,-100.00,SSE,165,5.0,14.0,28,0.00,,,0.00,,2013-10-08 13:42:00,
2013-10-08 06:52:00,54.0,22.0,-100.00,SSE,165,5.0,14.0,28,0.00,,,0.00,,2013-10-08 13:52:00,
2013-10-08 07:02:00,54.0,22.0,-100.00,SSE,165,5.0,14.0,28,0.00,,,0.00,,2013-10-08 14:02:00,
2013-10-08 07:11:00,54.0,22.0,-100.00,SSE,165,5.0,14.0,28,0.00,,,0.00,,2013-10-08 14:11:00,
2013-10-08 07:42:00,55.0,23.0,-100.00,SSE,167,6.0,14.0,28,0.00,,,0.00,,2013-10-08 14:42:00,
2013-10-08 07:52:00,55.0,23.0,-100.00,SSE,167,6.0,14.0,28,0.00,,,0.00,,2013-10-08 14:52:00,
2013-10-08 08:01:00,55.0,23.0,-100.00,SSE,167,6.0,14.0,28,0.00,,,0.00,,2013-10-08 15:01:00,
2013-10-08 08:11:00,55.0,23.0,-100.00,SSE,167,6.0,14.0,28,0.00,,,0.00,,2013-10-08 15:11:00,
2013-10-08 08:44:00,59.0,24.0,-100.00,South,174,7.0,18.0,26,0.00,,,0.00,,2013-10-08 15:44:00,
2013-10-08 08:53:00,59.0,24.0,-100.00,South,174,7.0,18.0,26,0.00,,,0.00,,2013-10-08 15:53:00,
2013-10-08 09:03:00,59.0,24.0,-100.00,South,174,7.0,18.0,26,0.00,,,0.00,,2013-10-08 16:03:00,
2013-10-08 09:13:00,59.0,24.0,-100.00,South,174,7.0,18.0,26,0.00,,,0.00,,2013-10-08 16:13:00,
2013-10-08 09:42:00,61.0,25.0,-100.00,South,176,8.0,19.0,25,0.00,,,0.00,,2013-10-08 16:42:00,
2013-10-08 09:53:00,61.0,25.0,-100.00,South,176,8.0,19.0,25,0.00,,,0.00,,2013-10-08 16:53:00,
2013-10-08 10:02:00,61.0,25.0,-100.00,South,176,8.0,19.0,25,0.00,,,0.00,,2013-10-08 17:02:00,
2013-10-08 10:12:00,61.0,25.0,-100.00,South,176,8.0,19.0,25,0.00,,,0.00,,2013-10-08 17:12:00,
2013-10-08 10:43:00,62.0,23.0,-100.00,SW,223,9.0,19.0,22,0.00,,,0.00,,2013-10-08 17:43:00,
2013-10-08 10:52:00,62.0,23.0,-100.00,SW,223,9.0,19.0,22,0.00,,,0.00,,2013-10-08 17:52:00,
2013-10-08 11:02:00,62.0,23.0,-100.00,SW,223,9.0,19.0,22,0.00,,,0.00,,2013-10-08 18:02:00,
2013-10-08 11:11:00,62.0,23.0,-100.00,SW,223,9.0,19.0,22,0.00,,,0.00,,2013-10-08 18:11:00,
2013-10-08 11:42:00,64.0,23.0,-100.00,SW,227,8.0,19.0,21,0.00,,,0.00,,2013-10-08 18:42:00,
2013-10-08 11:53:00,64.0,23.0,-100.00,SW,227,8.0,19.0,21,0.00,,,0.00,,2013-10-08 18:53:00,
2013-10-08 12:02:00,64.0,23.0,-100.00,SW,227,8.0,19.0,21,0.00,,,0.00,,2013-10-08 19:02:00,
2013-10-08 12:11:00,64.0,23.0,-100.00,SW,227,8.0,19.0,21,0.00,,,0.00,,2013-10-08 19:11:00,
2013-10-08 12:43:00,66.0,23.0,-100.00,SSW,194,8.0,22.0,19,0.00,,,0.00,,2013-10-08 19:43:00,
2013-10-08 12:52:00,66.0,23.0,-100.00,SSW,194,8.0,22.0,19,0.00,,,0.00,,2013-10-08 19:52:00,
2013-10-08 13:02:00,66.0,23.0,-100.00,SSW,194,8.0,22.0,19,0.00,,,0.00,,2013-10-08 20:02:00,
2013-10-08 13:12:00,66.0,23.0,-100.00,SSW,194,8.0,22.0,19,0.00,,,0.00,,2013-10-08 20:12:00,
2013-10-08 13:42:00,67.0,19.0,-100.00,SSW,199,9.0,24.0,16,0.00,,,0.00,,2013-10-08 20:42:00,
2013-10-08 13:52:00,67.0,19.0,-100.00,SSW,199,9.0,24.0,16,0.00,,,0.00,,2013-10-08 20:52:00,
2013-10-08 14:01:00,67.0,19.0,-100.00,SSW,199,9.0,24.0,16,0.00,,,0.00,,2013-10-08 21:01:00,
2013-10-08 14:12:00,67.0,19.0,-100.00,SSW,199,9.0,24.0,16,0.00,,,0.00,,2013-10-08 21:12:00,
2013-10-08 14:44:00,67.0,19.0,-100.00,WSW,248,9.0,22.0,16,0.00,,,0.00,,2013-10-08 21:44:00,
2013-10-08 14:54:00,67.0,19.0,-100.00,WSW,248,9.0,22.0,16,0.00,,,0.00,,2013-10-08 21:54:00,
2013-10-08 15:03:00,67.0,19.0,-100.00,WSW,248,9.0,22.0,16,0.00,,,0.00,,2013-10-08 22:03:00,
2013-10-08 15:13:00,67.0,19.0,-100.00,WSW,248,9.0,22.0,16,0.00,,,0.00,,2013-10-08 22:13:00,
2013-10-08 15:49:00,66.0,17.0,-100.00,WSW,246,9.0,19.0,15,0.00,,,0.00,,2013-10-08 22:49:00,
2013-10-08 15:57:00,66.0,17.0,-100.00,WSW,246,9.0,19.0,15,0.00,,,0.00,,2013-10-08 22:57:00,
2013-10-08 16:03:00,66.0,17.0,-100.00,WSW,246,9.0,19.0,15,0.00,,,0.00,,2013-10-08 23:03:00,
2013-10-08 16:12:00,66.0,17.0,-100.00,WSW,246,9.0,19.0,15,0.00,,,0.00,,2013-10-08 23:12:00,
2013-10-08 16:42:00,65.0,19.0,-100.00,SW,230,7.0,22.0,17,0.00,,,0.00,,2013-10-08 23:42:00,
2013-10-08 16:52:00,65.0,19.0,-100.00,SW,230,7.0,22.0,17,0.00,,,0.00,,2013-10-08 23:52:00,
2013-10-08 17:02:00,65.0,19.0,-100.00,SW,230,7.0,22.0,17,0.00,,,0.00,,2013-10-09 00:02:00,
2013-10-08 17:12:00,65.0,19.0,-100.00,SW,230,7.0,22.0,17,0.00,,,0.00,,2013-10-09 00:12:00,
2013-10-08 17:43:00,62.0,18.0,-100.00,SW,230,6.0,19.0,18,0.00,,,0.00,,2013-10-09 00:43:00,
2013-10-08 17:52:00,62.0,18.0,-100.00,SW,230,6.0,19.0,18,0.00,,,0.00,,2013-10-09 00:52:00,
2013-10-08 18:01:00,62.0,18.0,-100.00,SW,230,6.0,19.0,18,0.00,,,0.00,,2013-10-09 01:01:00,
2013-10-08 18:12:00,62.0,18.0,-100.00,SW,230,6.0,19.0,18,0.00,,,0.00,,2013-10-09 01:12:00,
2013-10-08 18:43:00,56.0,20.0,-100.00,SW,223,3.0,15.0,24,0.00,,,0.00,,2013-10-09 01:43:00,
2013-10-08 18:52:00,56.0,20.0,-100.00,SW,223,3.0,15.0,24,0.00,,,0.00,,2013-10-09 01:52:00,
2013-10-08 19:02:00,56.0,20.0,-100.00,SW,223,3.0,15.0,24,0.00,,,0.00,,2013-10-09 02:02:00,
2013-10-08 19:12:00,56.0,20.0,-100.00,SW,223,3.0,15.0,24,0.00,,,0.00,,2013-10-09 02:12:00,
2013-10-08 19:42:00,54.0,22.0,-100.00,SSW,212,4.0,13.0,29,0.00,,,0.00,,2013-10-09 02:42:00,
2013-10-08 19:52:00,54.0,22.0,-100.00,SSW,212,4.0,13.0,29,0.00,,,0.00,,2013-10-09 02:52:00,
2013-10-08 20:02:00,54.0,22.0,-100.00,SSW,212,4.0,13.0,29,0.00,,,0.00,,2013-10-09 03:02:00,
2013-10-08 20:11:00,54.0,22.0,-100.00,SSW,212,4.0,13.0,29,0.00,,,0.00,,2013-10-09 03:11:00,
2013-10-08 20:45:00,53.0,22.0,-100.00,South,173,6.0,13.0,30,0.00,,,0.00,,2013-10-09 03:45:00,
2013-10-08 20:54:00,53.0,22.0,-100.00,South,173,6.0,13.0,30,0.00,,,0.00,,2013-10-09 03:54:00,
2013-10-08 21:05:00,53.0,22.0,-100.00,South,173,6.0,13.0,30,0.00,,,0.00,,2013-10-09 04:05:00,
2013-10-08 21:14:00,53.0,22.0,-100.00,South,173,6.0,13.0,30,0.00,,,0.00,,2013-10-09 04:14:00,
2013-10-08 21:54:00,53.0,23.0,-100.00,South,177,7.0,17.0,31,0.00,,,0.00,,2013-10-09 04:54:00,
2013-10-08 22:04:00,53.0,23.0,-100.00,South,177,7.0,17.0,31,0.00,,,0.00,,2013-10-09 05:04:00,
2013-10-08 22:13:00,53.0,23.0,-100.00,South,177,7.0,17.0,31,0.00,,,0.00,,2013-10-09 05:13:00,
2013-10-08 22:42:00,53.0,26.0,-100.00,South,175,6.0,19.0,35,0.00,,,0.00,,2013-10-09 05:42:00,
2013-10-08 22:52:00,53.0,26.0,-100.00,South,175,6.0,19.0,35,0.00,,,0.00,,2013-10-09 05:52:00,
2013-10-08 23:02:00,53.0,26.0,-100.00,South,175,6.0,19.0,35,0.00,,,0.00,,2013-10-09 06:02:00,
2013-10-08 23:12:00,53.0,26.0,-100.00,South,175,6.0,19.0,35,0.00,,,0.00,,2013-10-09 06:12:00,
2013-10-08 23:42:00,52.0,26.0,-100.00,South,174,7.0,19.0,36,0.00,,,0.00,,2013-10-09 06:42:00,
2013-10-08 23:52:00,52.0,26.0,-100.00,South,174,7.0,19.0,36,0.00,,,0.00,,2013-10-09 06:52:00,